Time;durP1;ratioP1;P1;durP2;ratioP2;P2;SDS_P1;SDS_P2;PMS_P1;PMS_P2;Temp;Humidity;BMP_temperature;BMP_pressure;BME280_temperature;BME280_humidity;BME280_pressure;Samples;Min_cycle;Max_cycle;Signal;HPM_P1;HPM_P2
2021/12/27 00:00:59;;;;;;;5.17;2.77;;;-5.40;99.90;;;;;;5046651;28;20196;-55
2021/12/27 00:03:26;;;;;;;7.93;3.73;;;-5.40;99.90;;;;;;5068840;28;20204;-56
2021/12/27 00:05:54;;;;;;;4.00;3.37;;;-5.40;99.90;;;;;;5045120;28;20781;-57
2021/12/27 00:08:23;;;;;;;5.43;3.70;;;-5.40;99.90;;;;;;5046047;28;20573;-54
2021/12/27 00:10:49;;;;;;;5.70;3.10;;;-5.40;99.90;;;;;;5069116;28;20219;-56
2021/12/27 00:13:16;;;;;;;4.63;3.00;;;-5.40;99.90;;;;;;5057496;28;20527;-56
2021/12/27 00:15:44;;;;;;;5.53;3.13;;;-5.40;99.90;;;;;;5047633;28;20457;-56
2021/12/27 00:18:11;;;;;;;4.77;3.00;;;-5.40;99.90;;;;;;5061679;28;20223;-56
2021/12/27 00:20:38;;;;;;;6.73;3.67;;;-5.40;99.90;;;;;;5057827;28;20204;-56
2021/12/27 00:23:06;;;;;;;5.73;3.70;;;-5.40;99.90;;;;;;5056509;28;20207;-55
2021/12/27 00:25:33;;;;;;;7.87;3.57;;;-5.40;99.90;;;;;;5059933;28;20709;-55
2021/12/27 00:27:59;;;;;;;5.50;3.13;;;-5.40;99.90;;;;;;5053532;28;20210;-51
2021/12/27 00:30:27;;;;;;;5.70;3.30;;;-5.50;99.90;;;;;;5041906;28;20236;-57
2021/12/27 00:32:53;;;;;;;6.00;3.67;;;-5.40;99.90;;;;;;5055392;28;20216;-52
2021/12/27 00:35:22;;;;;;;7.63;3.60;;;-5.50;99.90;;;;;;5066934;28;20203;-55
2021/12/27 00:37:49;;;;;;;5.70;3.57;;;-5.50;99.90;;;;;;5047450;28;20525;-56
2021/12/27 00:40:17;;;;;;;5.47;3.47;;;-5.50;99.90;;;;;;5055987;28;20203;-55
2021/12/27 00:42:44;;;;;;;7.43;3.57;;;-5.50;99.90;;;;;;5054010;28;20219;-52
2021/12/27 00:45:11;;;;;;;9.37;3.93;;;-5.50;99.90;;;;;;5058323;28;20208;-56
2021/12/27 00:47:38;;;;;;;11.77;4.53;;;-5.50;99.90;;;;;;5045612;28;20511;-52
2021/12/27 00:50:06;;;;;;;7.03;4.17;;;-5.50;99.90;;;;;;5064936;28;20230;-57
2021/12/27 00:52:35;;;;;;;8.77;4.10;;;-5.50;99.90;;;;;;5056226;28;20214;-58
2021/12/27 00:55:03;;;;;;;5.80;3.73;;;-5.50;99.90;;;;;;5058416;28;20205;-54
2021/12/27 00:57:31;;;;;;;7.97;4.47;;;-5.50;99.90;;;;;;5066934;28;20266;-56
2021/12/27 00:59:58;;;;;;;6.50;3.73;;;-5.50;99.90;;;;;;5051864;28;20219;-55
2021/12/27 01:02:25;;;;;;;6.83;4.03;;;-5.50;99.90;;;;;;5039571;28;20232;-57
2021/12/27 01:04:51;;;;;;;6.73;3.43;;;-5.50;99.90;;;;;;5070741;28;20200;-55
2021/12/27 01:07:18;;;;;;;11.17;4.50;;;-5.50;99.90;;;;;;5058506;28;20204;-54
2021/12/27 01:09:58;;;;;;;7.60;3.70;;;-5.50;99.90;;;;;;5053627;28;20223;-51
2021/12/27 01:12:34;;;;;;;9.20;4.33;;;-5.50;99.90;;;;;;5053861;28;20702;-56
2021/12/27 01:15:32;;;;;;;5.33;3.60;;;-5.40;99.90;;;;;;5058155;28;20208;-56
2021/12/27 01:17:58;;;;;;;8.10;4.90;;;-5.40;99.90;;;;;;5042979;28;20284;-54
2021/12/27 01:20:25;;;;;;;8.60;3.77;;;-5.40;99.90;;;;;;5066026;28;20194;-56
2021/12/27 01:22:52;;;;;;;11.40;4.07;;;-5.40;99.90;;;;;;5053940;28;20228;-50
2021/12/27 01:25:20;;;;;;;8.40;4.87;;;-5.40;99.90;;;;;;5059627;28;20554;-57
2021/12/27 01:27:47;;;;;;;9.97;5.30;;;-5.40;99.90;;;;;;5057933;28;20204;-53
2021/12/27 01:30:19;;;;;;;7.80;4.13;;;-5.30;99.90;;;;;;5057020;28;20235;-56
2021/12/27 01:32:49;;;;;;;10.13;4.83;;;-5.30;99.90;;;;;;5054486;28;20291;-55
2021/12/27 01:35:16;;;;;;;8.53;4.50;;;-5.20;99.90;;;;;;5048814;28;20292;-54
2021/12/27 01:37:43;;;;;;;8.00;4.63;;;-5.20;99.90;;;;;;5070219;28;20198;-49
2021/12/27 01:40:11;;;;;;;7.83;4.37;;;-5.20;99.90;;;;;;5054331;28;20601;-53
2021/12/27 01:42:58;;;;;;;9.43;4.67;;;-5.20;99.90;;;;;;5060314;28;20224;-50
2021/12/27 01:45:26;;;;;;;10.73;5.73;;;-5.10;99.90;;;;;;5054340;28;20211;-55
2021/12/27 01:47:53;;;;;;;8.83;4.57;;;-5.10;99.90;;;;;;5061500;28;20708;-50
2021/12/27 01:50:20;;;;;;;10.80;5.07;;;-5.10;99.90;;;;;;5049696;28;20216;-56
2021/12/27 01:52:47;;;;;;;8.73;4.43;;;-5.00;99.90;;;;;;5070497;28;20342;-55
2021/12/27 01:55:13;;;;;;;11.47;4.67;;;-5.00;99.90;;;;;;5057483;28;20211;-54
2021/12/27 01:57:40;;;;;;;10.03;5.17;;;-5.00;99.90;;;;;;5057624;28;20204;-48
2021/12/27 02:00:08;;;;;;;11.60;4.17;;;-5.00;99.90;;;;;;5065910;28;20213;-52
2021/12/27 02:02:39;;;;;;;10.30;5.07;;;-5.00;99.90;;;;;;5058017;28;20282;-53
2021/12/27 02:05:06;;;;;;;11.10;4.27;;;-4.90;99.90;;;;;;5052888;28;20566;-51
2021/12/27 02:07:33;;;;;;;13.63;5.50;;;-4.90;99.90;;;;;;5060128;28;20507;-52
2021/12/27 02:10:02;;;;;;;9.03;4.50;;;-4.90;99.90;;;;;;5064771;28;20224;-52
2021/12/27 02:12:29;;;;;;;8.43;5.00;;;-4.80;99.90;;;;;;5052700;28;20724;-52
2021/12/27 02:14:55;;;;;;;11.43;5.73;;;-4.80;99.90;;;;;;5065913;28;20210;-49
2021/12/27 02:17:23;;;;;;;10.93;5.33;;;-4.80;99.90;;;;;;5052673;28;20258;-50
2021/12/27 02:19:51;;;;;;;12.50;5.83;;;-4.80;99.90;;;;;;5066819;28;20201;-50
2021/12/27 02:22:17;;;;;;;9.70;5.13;;;-4.80;99.90;;;;;;5054587;28;20616;-52
2021/12/27 02:24:44;;;;;;;11.43;6.50;;;-4.80;99.90;;;;;;5068480;28;20207;-50
2021/12/27 02:27:14;;;;;;;14.77;5.30;;;-4.80;99.90;;;;;;5056700;28;20273;-57
2021/12/27 02:29:40;;;;;;;11.33;5.57;;;-4.80;99.90;;;;;;5057493;28;20327;-55
2021/12/27 02:32:08;;;;;;;10.43;5.10;;;-4.70;99.90;;;;;;5065546;28;20221;-53
2021/12/27 02:34:35;;;;;;;12.67;5.67;;;-4.70;99.90;;;;;;5056378;28;21042;-49
2021/12/27 02:37:04;;;;;;;8.50;4.83;;;-4.70;99.90;;;;;;5054308;28;20209;-49
2021/12/27 02:39:30;;;;;;;9.67;5.40;;;-4.70;99.90;;;;;;5064313;28;20213;-52
2021/12/27 02:41:57;;;;;;;13.20;5.73;;;-4.70;99.90;;;;;;5060049;28;20229;-53
2021/12/27 02:44:24;;;;;;;12.93;5.77;;;-4.70;99.90;;;;;;5057010;28;20200;-52
2021/12/27 02:46:51;;;;;;;10.23;5.67;;;-4.70;99.90;;;;;;5063920;28;20203;-53
2021/12/27 02:49:17;;;;;;;10.90;5.60;;;-4.70;99.90;;;;;;5059020;28;20201;-54
2021/12/27 02:51:44;;;;;;;13.83;6.23;;;-4.60;99.90;;;;;;5049923;28;20222;-51
2021/12/27 02:54:12;;;;;;;9.90;5.97;;;-4.60;99.90;;;;;;5075027;28;20205;-54
2021/12/27 02:56:39;;;;;;;11.03;5.90;;;-4.60;99.90;;;;;;5056837;28;20667;-46
2021/12/27 02:59:06;;;;;;;9.10;6.00;;;-4.60;99.90;;;;;;5064899;28;20725;-44
2021/12/27 03:01:33;;;;;;;11.80;5.43;;;-4.60;99.90;;;;;;5055181;28;20220;-45
2021/12/27 03:03:59;;;;;;;14.43;5.30;;;-4.60;99.90;;;;;;5059479;28;20224;-45
2021/12/27 03:06:26;;;;;;;11.77;5.80;;;-4.60;99.90;;;;;;5055768;28;20198;-43
2021/12/27 03:08:52;;;;;;;13.50;5.67;;;-4.70;99.90;;;;;;5057837;28;20196;-44
2021/12/27 03:11:21;;;;;;;12.67;5.23;;;-4.70;99.90;;;;;;5069115;28;20298;-45
2021/12/27 03:13:50;;;;;;;10.90;5.77;;;-4.70;99.90;;;;;;5055611;28;20210;-44
2021/12/27 03:16:19;;;;;;;11.20;5.40;;;-4.60;99.90;;;;;;5057917;28;20212;-45
2021/12/27 03:18:48;;;;;;;13.83;5.73;;;-4.70;99.90;;;;;;5058757;28;20201;-51
2021/12/27 03:21:15;;;;;;;8.63;4.57;;;-4.60;99.90;;;;;;5045265;28;20240;-54
2021/12/27 03:23:43;;;;;;;9.60;5.70;;;-4.60;99.90;;;;;;5048869;28;22486;-49
2021/12/27 03:26:11;;;;;;;12.07;6.33;;;-4.60;99.90;;;;;;5062962;28;20204;-52
2021/12/27 03:28:39;;;;;;;13.93;5.80;;;-4.60;99.90;;;;;;5055410;28;20782;-51
2021/12/27 03:31:08;;;;;;;9.17;5.83;;;-4.60;99.90;;;;;;5059816;28;20236;-49
2021/12/27 03:33:34;;;;;;;11.50;6.17;;;-4.60;99.90;;;;;;5060214;28;20206;-50
2021/12/27 03:36:03;;;;;;;12.90;6.00;;;-4.50;99.90;;;;;;5059679;28;20216;-44
2021/12/27 03:38:32;;;;;;;12.97;6.17;;;-4.50;99.90;;;;;;5060372;28;20284;-47
2021/12/27 03:40:58;;;;;;;9.77;5.47;;;-4.50;99.90;;;;;;5053028;28;20260;-47
2021/12/27 03:43:25;;;;;;;10.97;6.60;;;-4.50;99.90;;;;;;5053905;28;20673;-43
2021/12/27 03:45:53;;;;;;;10.23;6.30;;;-4.50;99.90;;;;;;5063158;28;20212;-47
2021/12/27 03:48:20;;;;;;;12.97;6.17;;;-4.40;99.90;;;;;;5057126;28;20213;-48
2021/12/27 03:50:46;;;;;;;14.47;6.20;;;-4.40;99.90;;;;;;5056163;28;20956;-46
2021/12/27 03:53:13;;;;;;;12.67;6.10;;;-4.40;99.90;;;;;;5068448;28;20224;-46
2021/12/27 03:55:40;;;;;;;11.53;6.50;;;-4.50;99.90;;;;;;5051490;28;20209;-49
2021/12/27 03:58:21;;;;;;;11.40;6.07;;;-4.50;99.90;;;;;;5074910;28;20203;-46
2021/12/27 04:01:00;;;;;;;12.50;6.87;;;-4.50;99.90;;;;;;5059813;28;20284;-45
2021/12/27 04:03:28;;;;;;;14.93;7.10;;;-4.40;99.90;;;;;;5049305;28;20755;-47
2021/12/27 04:05:55;;;;;;;12.67;6.60;;;-4.40;99.90;;;;;;5063065;28;20216;-46
2021/12/27 04:08:23;;;;;;;12.27;6.73;;;-4.40;99.90;;;;;;5048440;28;20212;-48
2021/12/27 04:10:50;;;;;;;14.73;6.60;;;-4.30;99.90;;;;;;5049032;28;20210;-45
2021/12/27 04:13:18;;;;;;;10.90;6.60;;;-4.30;99.90;;;;;;5057952;28;20385;-43
2021/12/27 04:15:46;;;;;;;16.93;7.17;;;-4.30;99.90;;;;;;5054937;28;20226;-41
2021/12/27 04:18:12;;;;;;;14.47;6.60;;;-4.20;99.90;;;;;;5054667;28;20294;-42
2021/12/27 04:20:41;;;;;;;16.47;6.90;;;-4.20;99.90;;;;;;5064560;28;20203;-42
2021/12/27 04:23:08;;;;;;;12.07;6.93;;;-4.20;99.90;;;;;;5055166;28;20217;-44
2021/12/27 04:25:36;;;;;;;11.37;6.73;;;-4.20;99.90;;;;;;5062195;28;20322;-46
2021/12/27 04:28:03;;;;;;;12.07;6.40;;;-4.20;99.90;;;;;;5038165;28;20209;-46
2021/12/27 04:30:29;;;;;;;12.40;7.00;;;-4.20;99.90;;;;;;5047577;28;20218;-45
2021/12/27 04:32:56;;;;;;;16.80;8.13;;;-4.10;99.90;;;;;;5063018;28;20226;-47
2021/12/27 04:35:23;;;;;;;16.33;6.83;;;-4.10;99.90;;;;;;5055971;28;20212;-44
2021/12/27 04:37:51;;;;;;;17.13;8.30;;;-4.10;99.90;;;;;;5049708;28;21013;-45
2021/12/27 04:40:20;;;;;;;14.67;7.00;;;-4.20;99.90;;;;;;5055399;28;20552;-45
2021/12/27 04:42:50;;;;;;;15.03;7.17;;;-4.10;99.90;;;;;;5045677;28;20220;-48
2021/12/27 04:45:18;;;;;;;14.70;7.03;;;-4.10;99.90;;;;;;5060434;28;20222;-44
2021/12/27 04:47:45;;;;;;;11.27;6.33;;;-4.10;99.90;;;;;;5053319;28;20213;-46
2021/12/27 04:50:12;;;;;;;12.53;7.20;;;-4.10;99.90;;;;;;5058138;28;20202;-47
2021/12/27 04:52:40;;;;;;;11.97;7.10;;;-4.10;99.90;;;;;;5063468;28;20252;-48
2021/12/27 04:55:09;;;;;;;12.40;7.00;;;-4.00;99.90;;;;;;5063120;28;20209;-45
2021/12/27 04:57:36;;;;;;;15.03;7.53;;;-4.00;99.90;;;;;;5047504;28;20296;-50
2021/12/27 05:00:04;;;;;;;13.63;6.87;;;-4.00;99.90;;;;;;5059094;28;20205;-47
2021/12/27 05:02:30;;;;;;;14.60;7.10;;;-4.00;99.90;;;;;;5044779;28;20221;-45
2021/12/27 05:04:57;;;;;;;12.90;7.13;;;-3.90;99.90;;;;;;5055569;28;20202;-45
2021/12/27 05:07:24;;;;;;;15.07;8.07;;;-3.90;99.90;;;;;;5060485;28;20205;-48
2021/12/27 05:09:50;;;;;;;15.20;8.07;;;-3.90;99.90;;;;;;5055290;28;20193;-46
2021/12/27 05:12:18;;;;;;;14.57;7.17;;;-3.90;99.90;;;;;;5055888;28;20317;-48
2021/12/27 05:14:45;;;;;;;13.20;6.93;;;-3.80;99.90;;;;;;5047635;28;20205;-42
2021/12/27 05:17:12;;;;;;;12.33;6.83;;;-3.80;99.90;;;;;;5049538;28;20225;-50
2021/12/27 05:19:38;;;;;;;14.83;8.40;;;-3.80;99.90;;;;;;5072170;28;20197;-47
2021/12/27 05:22:05;;;;;;;15.70;7.93;;;-3.80;99.90;;;;;;5045930;28;20221;-42
2021/12/27 05:24:32;;;;;;;13.37;7.60;;;-3.80;99.90;;;;;;5058874;28;20202;-44
2021/12/27 05:26:58;;;;;;;13.90;7.47;;;-3.70;99.90;;;;;;5071298;28;20578;-43
2021/12/27 05:29:26;;;;;;;21.60;8.63;;;-3.70;99.90;;;;;;5051241;28;20713;-46
2021/12/27 05:31:57;;;;;;;12.80;7.00;;;-3.70;99.90;;;;;;5049039;28;20726;-53
2021/12/27 05:34:24;;;;;;;16.13;7.27;;;-3.60;99.90;;;;;;5065797;28;20291;-51
2021/12/27 05:36:51;;;;;;;17.93;8.00;;;-3.60;99.90;;;;;;5062761;28;20209;-52
2021/12/27 05:39:19;;;;;;;17.73;8.00;;;-3.60;99.90;;;;;;5066090;28;20209;-52
2021/12/27 05:41:46;;;;;;;12.63;6.73;;;-3.60;99.90;;;;;;5051649;28;20221;-48
2021/12/27 05:44:13;;;;;;;14.80;7.67;;;-3.60;99.90;;;;;;5052304;28;20704;-49
2021/12/27 05:46:41;;;;;;;17.20;8.27;;;-3.60;99.90;;;;;;5069804;28;20910;-50
2021/12/27 05:49:08;;;;;;;17.03;8.03;;;-3.60;99.90;;;;;;5052872;28;20214;-49
2021/12/27 05:51:36;;;;;;;19.10;8.67;;;-3.60;99.90;;;;;;5067573;28;20229;-52
2021/12/27 05:54:03;;;;;;;12.67;6.77;;;-3.60;99.90;;;;;;5056855;28;20222;-51
2021/12/27 05:56:29;;;;;;;16.37;8.77;;;-3.50;99.90;;;;;;5059739;28;20210;-54
2021/12/27 05:58:56;;;;;;;17.83;8.20;;;-3.50;99.90;;;;;;5069884;28;20208;-50
2021/12/27 06:01:23;;;;;;;16.83;7.83;;;-3.50;99.90;;;;;;5054536;28;20218;-53
2021/12/27 06:03:51;;;;;;;14.93;7.77;;;-3.50;99.90;;;;;;5048088;28;20213;-53
2021/12/27 06:06:17;;;;;;;13.03;7.97;;;-3.50;99.90;;;;;;5069302;28;20198;-51
2021/12/27 06:08:44;;;;;;;19.63;8.23;;;-3.50;99.90;;;;;;5058871;28;20198;-43
2021/12/27 06:11:11;;;;;;;17.60;9.47;;;-3.50;99.90;;;;;;5052546;28;20729;-44
2021/12/27 06:13:38;;;;;;;17.67;8.73;;;-3.50;99.90;;;;;;5061777;28;20194;-42
2021/12/27 06:16:05;;;;;;;17.00;7.30;;;-3.50;99.90;;;;;;5046282;28;20221;-43
2021/12/27 06:18:32;;;;;;;14.63;7.67;;;-3.60;99.90;;;;;;5044192;28;20229;-42
2021/12/27 06:21:00;;;;;;;16.50;8.10;;;-3.60;99.90;;;;;;5048998;28;20210;-41
2021/12/27 06:23:27;;;;;;;20.40;9.13;;;-3.60;99.90;;;;;;5052304;28;20202;-49
2021/12/27 06:25:53;;;;;;;18.20;7.83;;;-3.60;99.90;;;;;;5049287;28;20217;-49
2021/12/27 06:28:20;;;;;;;16.10;8.43;;;-3.70;99.90;;;;;;5062200;28;20230;-49
2021/12/27 06:30:47;;;;;;;17.53;8.10;;;-3.70;99.90;;;;;;5047012;28;20217;-49
2021/12/27 06:33:14;;;;;;;15.80;8.03;;;-3.70;99.90;;;;;;5050045;28;21416;-46
2021/12/27 06:35:41;;;;;;;20.33;9.13;;;-3.80;99.90;;;;;;5055221;28;20203;-45
2021/12/27 06:38:09;;;;;;;17.87;8.27;;;-3.80;99.90;;;;;;5058908;28;20218;-47
2021/12/27 06:40:36;;;;;;;13.70;8.13;;;-3.80;99.90;;;;;;5055191;28;20559;-51
2021/12/27 06:43:03;;;;;;;15.10;8.23;;;-3.80;99.90;;;;;;5050940;28;20939;-44
2021/12/27 06:45:29;;;;;;;22.30;8.90;;;-3.80;99.90;;;;;;5046769;28;20205;-48
2021/12/27 06:47:56;;;;;;;13.97;7.83;;;-3.80;99.90;;;;;;5047654;28;20221;-48
2021/12/27 06:50:23;;;;;;;17.73;8.70;;;-3.80;99.90;;;;;;5050054;28;20205;-42
2021/12/27 06:52:51;;;;;;;15.80;8.30;;;-3.90;99.90;;;;;;5056769;28;20250;-44
2021/12/27 06:55:19;;;;;;;15.33;7.27;;;-3.90;99.90;;;;;;5053443;28;20186;-44
2021/12/27 06:57:45;;;;;;;18.67;9.47;;;-3.90;99.90;;;;;;5050109;28;20210;-42
2021/12/27 07:00:14;;;;;;;17.30;8.70;;;-3.90;99.90;;;;;;5053539;28;20307;-44
2021/12/27 07:02:42;;;;;;;15.73;8.00;;;-3.90;99.90;;;;;;5048325;28;20721;-45
2021/12/27 07:05:09;;;;;;;13.37;8.70;;;-3.90;99.90;;;;;;5049183;28;20430;-44
2021/12/27 07:07:36;;;;;;;15.00;8.23;;;-3.90;99.90;;;;;;5059325;28;20202;-43
2021/12/27 07:10:04;;;;;;;15.50;8.17;;;-3.90;99.90;;;;;;5051067;28;20360;-48
2021/12/27 07:12:32;;;;;;;22.13;8.30;;;-3.90;99.90;;;;;;5059967;28;20405;-46
2021/12/27 07:14:59;;;;;;;17.97;8.87;;;-4.00;99.90;;;;;;5050744;28;20199;-45
2021/12/27 07:17:26;;;;;;;18.10;8.80;;;-4.00;99.90;;;;;;5048401;28;20728;-45
2021/12/27 07:19:53;;;;;;;18.67;9.23;;;-3.90;99.90;;;;;;5051982;28;20198;-45
2021/12/27 07:22:20;;;;;;;19.40;9.47;;;-3.90;99.90;;;;;;5060968;28;20227;-44
2021/12/27 07:24:46;;;;;;;14.57;8.60;;;-3.90;99.90;;;;;;5059766;28;20332;-43
2021/12/27 07:27:13;;;;;;;20.70;9.13;;;-3.90;99.90;;;;;;5060851;28;21653;-48
2021/12/27 07:29:41;;;;;;;18.63;9.20;;;-3.90;99.90;;;;;;5056964;28;20214;-43
2021/12/27 07:32:08;;;;;;;17.93;8.97;;;-3.80;99.90;;;;;;5039250;28;20217;-43
2021/12/27 07:34:35;;;;;;;22.17;10.40;;;-3.80;99.90;;;;;;5053491;28;20208;-42
2021/12/27 07:37:01;;;;;;;16.93;8.87;;;-3.80;99.90;;;;;;5045525;28;20893;-43
2021/12/27 07:39:28;;;;;;;25.77;10.23;;;-3.80;99.90;;;;;;5062712;28;20206;-45
2021/12/27 07:41:55;;;;;;;17.43;9.50;;;-3.80;99.90;;;;;;5051321;28;20229;-42
2021/12/27 07:44:22;;;;;;;16.40;9.80;;;-3.80;99.90;;;;;;5059774;28;20213;-42
2021/12/27 07:46:51;;;;;;;19.77;9.87;;;-3.80;99.90;;;;;;5045978;28;20208;-42
2021/12/27 07:49:18;;;;;;;17.60;10.07;;;-3.80;99.90;;;;;;5043602;28;20302;-41
2021/12/27 07:51:46;;;;;;;19.17;9.87;;;-3.70;99.90;;;;;;5062862;28;20562;-42
2021/12/27 07:54:13;;;;;;;18.53;9.67;;;-3.70;99.90;;;;;;5055342;28;20202;-42
2021/12/27 07:56:39;;;;;;;19.77;9.43;;;-3.70;99.90;;;;;;5056879;28;20201;-46
2021/12/27 07:59:06;;;;;;;21.67;10.47;;;-3.60;99.90;;;;;;5046430;28;20206;-41
2021/12/27 08:01:34;;;;;;;20.00;9.23;;;-3.60;99.90;;;;;;5053641;28;20229;-42
2021/12/27 08:04:03;;;;;;;23.10;10.23;;;-3.60;99.90;;;;;;5049068;28;20232;-42
2021/12/27 08:06:31;;;;;;;18.87;10.00;;;-3.60;99.90;;;;;;5059100;28;20209;-44
2021/12/27 08:08:58;;;;;;;22.67;9.80;;;-3.60;99.90;;;;;;5051760;28;20716;-42
2021/12/27 08:11:26;;;;;;;21.50;10.67;;;-3.60;99.90;;;;;;5062604;28;20234;-41
2021/12/27 08:13:53;;;;;;;20.57;10.57;;;-3.60;99.90;;;;;;5051428;28;20259;-44
2021/12/27 08:16:23;;;;;;;20.77;10.03;;;-3.60;99.90;;;;;;5055864;28;20220;-45
2021/12/27 08:18:51;;;;;;;22.57;9.63;;;-3.60;99.90;;;;;;5039966;28;20237;-44
2021/12/27 08:21:19;;;;;;;21.20;10.00;;;-3.60;99.90;;;;;;5052492;28;20233;-42
2021/12/27 08:23:46;;;;;;;23.13;10.00;;;-3.60;99.90;;;;;;5053544;28;20195;-43
2021/12/27 08:26:12;;;;;;;21.17;11.37;;;-3.50;99.90;;;;;;5060097;28;20194;-44
2021/12/27 08:28:39;;;;;;;20.80;11.13;;;-3.50;99.90;;;;;;5055532;28;20195;-41
2021/12/27 08:31:06;;;;;;;24.73;11.30;;;-3.50;99.90;;;;;;5046622;28;20214;-42
2021/12/27 08:33:33;;;;;;;23.93;11.63;;;-3.50;99.90;;;;;;5055667;28;20368;-48
2021/12/27 08:35:59;;;;;;;17.73;9.53;;;-3.40;99.90;;;;;;5037677;28;20228;-42
2021/12/27 08:38:27;;;;;;;21.63;9.87;;;-3.40;99.90;;;;;;5055264;28;20214;-42
2021/12/27 08:40:54;;;;;;;20.73;11.90;;;-3.40;99.90;;;;;;5053362;28;20206;-44
2021/12/27 08:43:21;;;;;;;18.93;10.43;;;-3.30;99.90;;;;;;5055955;28;20210;-46
2021/12/27 08:45:47;;;;;;;22.03;11.57;;;-3.30;99.90;;;;;;5041867;28;20990;-44
2021/12/27 08:48:14;;;;;;;26.53;10.43;;;-3.30;99.90;;;;;;5048906;28;20273;-43
2021/12/27 08:50:42;;;;;;;21.30;10.73;;;-3.20;99.90;;;;;;5047030;28;20271;-47
2021/12/27 08:53:09;;;;;;;24.97;11.90;;;-3.20;99.90;;;;;;5062036;28;20218;-45
2021/12/27 08:55:39;;;;;;;18.70;10.07;;;-3.10;99.90;;;;;;5050488;28;20210;-42
2021/12/27 08:58:06;;;;;;;21.50;11.27;;;-3.10;99.90;;;;;;5055952;28;20211;-51
2021/12/27 09:00:33;;;;;;;21.20;10.97;;;-3.00;99.90;;;;;;5033941;28;20686;-38
2021/12/27 09:03:00;;;;;;;23.53;10.77;;;-3.00;99.90;;;;;;5048583;28;20222;-51
2021/12/27 09:05:27;;;;;;;22.37;10.90;;;-3.00;99.90;;;;;;5060415;28;20198;-42
2021/12/27 09:07:53;;;;;;;20.90;10.23;;;-2.90;99.90;;;;;;5050438;28;20197;-41
2021/12/27 09:10:20;;;;;;;25.00;12.00;;;-2.90;99.90;;;;;;5054940;28;20194;-45
2021/12/27 09:12:48;;;;;;;19.53;10.07;;;-2.90;99.90;;;;;;5055591;28;20211;-41
2021/12/27 09:15:15;;;;;;;22.47;11.17;;;-2.90;99.90;;;;;;5053095;28;20216;-42
2021/12/27 09:17:41;;;;;;;20.07;11.67;;;-2.80;99.90;;;;;;5045008;28;20203;-45
2021/12/27 09:20:09;;;;;;;25.10;12.27;;;-2.80;99.90;;;;;;5052117;28;20241;-41
2021/12/27 09:22:36;;;;;;;19.37;11.67;;;-2.80;99.90;;;;;;5044163;28;20218;-41
2021/12/27 09:25:04;;;;;;;26.03;11.87;;;-2.70;99.90;;;;;;5057939;28;20249;-42
2021/12/27 09:27:30;;;;;;;23.43;12.23;;;-2.70;99.90;;;;;;5049238;28;20663;-43
2021/12/27 09:29:58;;;;;;;24.77;10.63;;;-2.60;99.90;;;;;;5055069;28;20213;-41
2021/12/27 09:32:25;;;;;;;24.57;12.03;;;-2.60;99.90;;;;;;5048867;28;20218;-42
2021/12/27 09:34:52;;;;;;;25.10;11.77;;;-2.60;99.90;;;;;;5055263;28;20218;-41
2021/12/27 09:37:20;;;;;;;19.57;11.33;;;-2.60;99.90;;;;;;5049212;28;20206;-41
2021/12/27 09:39:53;;;;;;;26.43;13.17;;;-2.50;99.90;;;;;;5069978;28;20221;-42
2021/12/27 09:42:20;;;;;;;27.43;12.27;;;-2.50;99.90;;;;;;5053567;28;20257;-43
2021/12/27 09:44:47;;;;;;;21.47;10.23;;;-2.50;99.90;;;;;;5055459;28;20279;-46
2021/12/27 09:47:15;;;;;;;27.20;12.10;;;-2.50;99.90;;;;;;5055723;28;20217;-43
2021/12/27 09:49:42;;;;;;;25.37;13.00;;;-2.40;99.90;;;;;;5047389;28;20209;-42
2021/12/27 09:52:09;;;;;;;20.57;10.97;;;-2.40;99.90;;;;;;5060722;28;20218;-43
2021/12/27 09:54:36;;;;;;;27.53;12.23;;;-2.30;99.90;;;;;;5048056;28;20286;-42
2021/12/27 09:57:03;;;;;;;24.93;11.70;;;-2.30;99.90;;;;;;5052862;28;20202;-45
2021/12/27 09:59:30;;;;;;;23.63;12.37;;;-2.30;99.90;;;;;;5051807;28;20207;-43
2021/12/27 10:01:57;;;;;;;21.00;11.97;;;-2.30;99.90;;;;;;5055335;28;20242;-43
2021/12/27 10:04:25;;;;;;;24.87;12.30;;;-2.30;99.90;;;;;;5047176;28;20199;-42
2021/12/27 10:06:53;;;;;;;24.50;12.10;;;-2.30;99.90;;;;;;5053132;28;20966;-40
2021/12/27 10:09:21;;;;;;;23.57;12.17;;;-2.30;99.90;;;;;;5052499;28;20215;-43
2021/12/27 10:11:47;;;;;;;23.70;12.43;;;-2.20;99.90;;;;;;5056137;28;20234;-41
2021/12/27 10:14:16;;;;;;;25.03;13.23;;;-2.20;99.90;;;;;;5062813;28;20214;-41
2021/12/27 10:16:46;;;;;;;24.33;12.17;;;-2.10;99.90;;;;;;5056257;28;20194;-40
2021/12/27 10:19:15;;;;;;;23.10;12.67;;;-2.10;99.90;;;;;;5054420;28;20207;-43
2021/12/27 10:21:44;;;;;;;26.73;13.23;;;-2.10;99.90;;;;;;5049560;28;20919;-41
2021/12/27 10:24:14;;;;;;;23.70;12.80;;;-2.10;99.90;;;;;;5061438;28;20209;-41
2021/12/27 10:26:42;;;;;;;29.33;11.97;;;-2.00;99.90;;;;;;5049254;28;20248;-46
2021/12/27 10:29:12;;;;;;;22.40;13.30;;;-2.00;99.90;;;;;;5055216;28;20202;-42
2021/12/27 10:31:57;;;;;;;25.27;12.57;;;-2.00;99.90;;;;;;5059390;28;20214;-42
2021/12/27 10:34:26;;;;;;;25.17;11.93;;;-2.00;99.90;;;;;;5051435;28;20584;-44
2021/12/27 10:37:10;;;;;;;21.33;12.50;;;-1.90;99.90;;;;;;5056874;28;20281;-46
2021/12/27 10:39:55;;;;;;;26.83;12.33;;;-1.90;99.90;;;;;;5045281;28;20218;-44
2021/12/27 10:42:25;;;;;;;28.23;15.07;;;-1.90;99.90;;;;;;5040157;28;20219;-42
2021/12/27 10:44:54;;;;;;;24.63;13.27;;;-1.90;99.90;;;;;;5054179;28;20202;-43
2021/12/27 10:47:39;;;;;;;26.27;13.20;;;-1.90;99.90;;;;;;5058955;28;20203;-45
2021/12/27 10:50:18;;;;;;;28.53;14.40;;;-1.80;99.90;;;;;;5051631;28;20206;-42
2021/12/27 10:52:58;;;;;;;24.17;13.27;;;-1.80;99.90;;;;;;5051758;28;20218;-41
2021/12/27 10:55:29;;;;;;;33.03;14.90;;;-1.80;99.90;;;;;;5048149;28;20289;-41
2021/12/27 10:58:13;;;;;;;26.20;13.67;;;-1.80;99.90;;;;;;5048594;28;20221;-41
2021/12/27 11:00:41;;;;;;;25.70;13.70;;;-1.80;99.90;;;;;;5053020;28;20198;-43
2021/12/27 11:03:07;;;;;;;30.47;14.70;;;-1.80;99.90;;;;;;5060400;28;20237;-43
2021/12/27 11:05:36;;;;;;;28.00;15.03;;;-1.80;99.90;;;;;;5055261;28;20210;-46
2021/12/27 11:08:05;;;;;;;26.03;14.67;;;-1.80;99.90;;;;;;5042025;28;20865;-41
2021/12/27 11:10:36;;;;;;;26.43;13.83;;;-1.80;99.90;;;;;;5059114;28;20199;-42
2021/12/27 11:13:04;;;;;;;26.67;13.57;;;-1.70;99.90;;;;;;5040760;28;20227;-40
2021/12/27 11:15:34;;;;;;;26.53;14.50;;;-1.70;99.90;;;;;;5047140;28;20612;-43
2021/12/27 11:18:01;;;;;;;26.63;14.13;;;-1.70;99.90;;;;;;5059808;28;20286;-42
2021/12/27 11:20:28;;;;;;;26.53;15.57;;;-1.70;99.90;;;;;;5059968;28;20203;-39
2021/12/27 11:22:58;;;;;;;32.40;15.47;;;-1.70;99.90;;;;;;5051706;28;20219;-39
2021/12/27 11:25:31;;;;;;;26.77;14.60;;;-1.70;99.90;;;;;;5052839;28;20210;-38
2021/12/27 11:27:59;;;;;;;29.83;15.13;;;-1.60;99.90;;;;;;5053596;28;20206;-39
2021/12/27 11:30:29;;;;;;;29.33;15.63;;;-1.60;99.90;;;;;;5057209;28;20669;-38
2021/12/27 11:33:08;;;;;;;31.93;16.03;;;-1.60;99.90;;;;;;5052833;28;20222;-39
2021/12/27 11:35:37;;;;;;;31.47;14.73;;;-1.50;99.90;;;;;;5061115;28;20282;-39
2021/12/27 11:38:05;;;;;;;34.43;15.13;;;-1.40;99.90;;;;;;5059479;28;20671;-39
2021/12/27 11:40:50;;;;;;;27.80;14.73;;;-1.40;99.90;;;;;;5070655;28;20210;-39
2021/12/27 11:43:17;;;;;;;25.37;14.33;;;-1.40;99.90;;;;;;5048076;28;20210;-38
2021/12/27 11:45:51;;;;;;;30.43;15.17;;;-1.40;99.90;;;;;;5066804;28;20209;-39
2021/12/27 11:48:20;;;;;;;24.97;14.53;;;-1.40;99.90;;;;;;5053240;28;20686;-39
2021/12/27 11:51:09;;;;;;;33.03;16.50;;;-1.40;99.90;;;;;;5061216;28;20199;-39
2021/12/27 11:53:43;;;;;;;30.17;15.53;;;-1.40;99.90;;;;;;5056532;28;20249;-39
2021/12/27 11:56:17;;;;;;;26.27;15.03;;;-1.40;99.90;;;;;;5053999;28;20237;-39
2021/12/27 11:58:45;;;;;;;28.43;15.30;;;-1.40;99.90;;;;;;5040997;28;20207;-39
2021/12/27 12:01:37;;;;;;;29.17;15.90;;;-1.30;99.90;;;;;;5056314;28;20202;-38
2021/12/27 12:04:04;;;;;;;30.53;16.23;;;-1.30;99.90;;;;;;5040410;28;20291;-39
2021/12/27 12:06:39;;;;;;;33.47;16.30;;;-1.30;99.90;;;;;;5061571;28;20208;-39
2021/12/27 12:09:15;;;;;;;32.13;15.70;;;-1.30;99.90;;;;;;5051622;28;20210;-39
2021/12/27 12:11:44;;;;;;;26.73;14.67;;;-1.30;99.90;;;;;;5053624;28;20822;-39
2021/12/27 12:14:31;;;;;;;30.83;15.33;;;-1.30;99.90;;;;;;5040518;28;20219;-38
2021/12/27 12:16:59;;;;;;;31.13;16.93;;;-1.30;99.90;;;;;;5046261;28;20195;-39
2021/12/27 12:19:41;;;;;;;30.87;15.47;;;-1.30;99.90;;;;;;5046967;28;20214;-39
2021/12/27 12:22:09;;;;;;;33.63;17.00;;;-1.30;99.90;;;;;;5048698;28;20239;-39
2021/12/27 12:24:35;;;;;;;26.47;15.73;;;-1.30;99.90;;;;;;5049219;28;20203;-40
2021/12/27 12:27:08;;;;;;;33.67;17.37;;;-1.30;99.90;;;;;;5038994;28;21268;-39
2021/12/27 12:29:38;;;;;;;29.90;15.80;;;-1.30;99.90;;;;;;5051935;28;20210;-39
2021/12/27 12:32:07;;;;;;;34.70;16.30;;;-1.30;99.90;;;;;;5047309;28;20218;-39
2021/12/27 12:34:35;;;;;;;32.33;16.10;;;-1.30;99.90;;;;;;5054025;28;20217;-40
2021/12/27 12:37:03;;;;;;;28.40;16.90;;;-1.20;99.90;;;;;;5040001;28;20211;-39
2021/12/27 12:39:39;;;;;;;32.37;16.17;;;-1.20;99.90;;;;;;5042447;28;20214;-39
2021/12/27 12:42:11;;;;;;;32.20;17.00;;;-1.20;99.90;;;;;;5058855;28;20245;-40